createdAt,value
2022-09-04T00:02:53.290Z,18.14
2022-09-04T00:05:33.623Z,17.99
2022-09-04T00:08:36.085Z,18.02
2022-09-04T00:11:25.474Z,17.81
2022-09-04T00:14:01.025Z,17.63
2022-09-04T00:16:41.108Z,17.67
2022-09-04T00:19:18.227Z,17.69
2022-09-04T00:21:53.383Z,17.76
2022-09-04T00:24:28.791Z,17.80
2022-09-04T00:27:05.977Z,17.84
2022-09-04T00:29:45.274Z,17.86
2022-09-04T00:32:24.944Z,17.84
2022-09-04T00:35:10.525Z,17.83
2022-09-04T00:37:51.754Z,17.81
2022-09-04T00:40:31.158Z,17.82
2022-09-04T00:43:49.599Z,17.80
2022-09-04T00:47:05.913Z,17.79
2022-09-04T00:50:23.018Z,17.79
2022-09-04T00:53:18.565Z,17.79
2022-09-04T00:56:10.004Z,17.81
2022-09-04T00:59:01.346Z,17.58
2022-09-04T01:01:29.453Z,17.61
2022-09-04T01:04:22.728Z,17.63
2022-09-04T01:07:11.085Z,17.62
2022-09-04T01:10:10.096Z,17.62
2022-09-04T01:12:49.111Z,17.58
2022-09-04T01:15:29.366Z,17.57
2022-09-04T01:18:11.666Z,17.49
2022-09-04T01:20:56.288Z,17.48
2022-09-04T01:24:18.108Z,17.45
2022-09-04T01:27:05.021Z,17.41
2022-09-04T01:33:07.583Z,17.35
2022-09-04T01:36:16.534Z,17.40
2022-09-04T01:38:59.701Z,17.40
2022-09-04T01:41:38.349Z,17.39
2022-09-04T01:44:11.512Z,17.37
2022-09-04T01:47:10.411Z,17.35
2022-09-04T01:49:58.284Z,17.29
2022-09-04T01:52:41.875Z,17.33
2022-09-04T01:55:37.769Z,17.33
2022-09-04T01:58:18.783Z,17.28
2022-09-04T02:01:00.511Z,17.24
2022-09-04T02:03:44.003Z,17.22
2022-09-04T02:06:26.257Z,17.22
2022-09-04T02:09:15.354Z,17.17
2022-09-04T02:12:02.271Z,16.89
2022-09-04T02:14:52.005Z,16.75
2022-09-04T02:17:40.930Z,16.81
2022-09-04T02:20:21.266Z,16.77
2022-09-04T02:23:04.017Z,16.80
2022-09-04T02:25:41.101Z,16.86
2022-09-04T02:28:24.069Z,16.86
2022-09-04T02:31:05.440Z,16.85
2022-09-04T02:33:43.649Z,16.79
2022-09-04T02:36:21.130Z,16.75
2022-09-04T02:39:03.392Z,16.77
2022-09-04T02:41:42.345Z,16.78
2022-09-04T02:44:37.587Z,16.76
2022-09-04T02:47:23.080Z,16.73
2022-09-04T02:50:01.658Z,16.73
2022-09-04T02:52:56.591Z,16.75
2022-09-04T02:55:48.877Z,16.60
2022-09-04T02:58:31.293Z,16.17
2022-09-04T03:01:11.942Z,16.21
2022-09-04T03:03:52.147Z,16.26
2022-09-04T03:06:42.134Z,16.28
2022-09-04T03:09:18.837Z,16.34
2022-09-04T03:11:57.528Z,16.38
2022-09-04T03:14:36.182Z,16.32
2022-09-04T03:17:16.142Z,16.34
2022-09-04T03:19:53.276Z,16.35
2022-09-04T03:22:30.835Z,16.38
2022-09-04T03:25:36.714Z,16.39
2022-09-04T03:28:11.735Z,16.35
2022-09-04T03:30:41.204Z,16.36
2022-09-04T03:33:22.816Z,16.38
2022-09-04T03:36:03.139Z,16.42
2022-09-04T03:38:47.771Z,16.42
2022-09-04T03:41:31.646Z,16.40
2022-09-04T03:44:22.483Z,16.42
2022-09-04T03:47:05.859Z,16.41
2022-09-04T03:49:46.181Z,16.43
2022-09-04T03:52:28.031Z,16.44
2022-09-04T03:55:33.141Z,16.43
2022-09-04T03:58:20.527Z,16.43
2022-09-04T04:01:04.176Z,16.43
2022-09-04T04:04:14.874Z,16.44
2022-09-04T04:06:53.858Z,16.43
2022-09-04T04:09:54.794Z,16.34
2022-09-04T04:12:53.383Z,16.11
2022-09-04T04:15:56.481Z,16.08
2022-09-04T04:19:03.092Z,15.93
2022-09-04T04:21:45.152Z,15.93
2022-09-04T04:24:50.458Z,15.95
2022-09-04T04:27:41.861Z,15.93
2022-09-04T04:30:12.457Z,15.92
2022-09-04T04:33:08.264Z,15.93
2022-09-04T04:35:44.840Z,15.95
2022-09-04T04:38:51.625Z,15.92
2022-09-04T04:41:40.467Z,15.93
2022-09-04T04:44:16.691Z,15.90
2022-09-04T04:47:07.727Z,15.89
2022-09-04T04:50:04.978Z,15.93
2022-09-04T04:52:51.490Z,15.96
2022-09-04T04:55:35.368Z,15.99
2022-09-04T04:58:52.878Z,16.02
2022-09-04T05:01:46.853Z,16.16
2022-09-04T05:04:31.769Z,16.39
2022-09-04T05:07:06.848Z,16.73
2022-09-04T05:09:46.572Z,17.06
2022-09-04T05:12:28.542Z,17.42
2022-09-04T05:15:08.493Z,17.81
2022-09-04T05:20:49.024Z,18.93
2022-09-04T05:23:33.559Z,19.45
2022-09-04T05:26:16.387Z,19.80
2022-09-04T05:28:58.044Z,20.30
2022-09-04T05:31:40.876Z,20.69
2022-09-04T05:34:31.200Z,21.32
2022-09-04T05:37:10.437Z,21.78
2022-09-04T05:39:56.744Z,22.38
2022-09-04T05:43:02.890Z,23.05
2022-09-04T05:45:48.909Z,23.61
2022-09-04T05:48:25.497Z,24.17
2022-09-04T05:51:50.268Z,24.65
2022-09-04T05:54:50.146Z,24.85
2022-09-04T05:57:44.055Z,25.42
2022-09-04T06:00:16.166Z,25.97
2022-09-04T06:03:26.607Z,26.47
2022-09-04T06:06:11.094Z,26.50
2022-09-04T06:09:12.630Z,26.93
2022-09-04T06:12:22.519Z,27.22
2022-09-04T06:15:15.847Z,27.12
2022-09-04T06:18:23.631Z,26.70
2022-09-04T06:21:15.992Z,25.97
2022-09-04T06:24:13.954Z,25.38
2022-09-04T06:27:11.203Z,25.00
2022-09-04T06:30:03.433Z,25.71
2022-09-04T06:33:15.322Z,26.51
2022-09-04T06:36:14.021Z,27.41
2022-09-04T06:39:05.151Z,28.47
2022-09-04T06:41:57.551Z,29.44
2022-09-04T06:44:43.697Z,29.99
2022-09-04T06:47:29.535Z,30.27
2022-09-04T06:50:20.581Z,30.24
2022-09-04T06:53:06.507Z,28.64
2022-09-04T06:55:49.933Z,27.13
2022-09-04T06:58:48.965Z,28.67
2022-09-04T07:01:30.940Z,29.74
2022-09-04T07:04:19.970Z,30.81
2022-09-04T07:07:03.001Z,31.48
2022-09-04T07:09:39.538Z,30.10
2022-09-04T07:12:53.968Z,30.41
2022-09-04T07:16:07.534Z,31.40
2022-09-04T07:19:16.692Z,31.37
2022-09-04T07:21:54.117Z,31.37
2022-09-04T07:24:51.881Z,32.06
2022-09-04T07:27:44.474Z,32.62
2022-09-04T07:30:15.650Z,31.92
2022-09-04T07:32:52.428Z,33.03
2022-09-04T07:35:28.241Z,32.17
2022-09-04T07:38:19.414Z,30.50
2022-09-04T07:40:56.678Z,31.09
2022-09-04T07:43:42.236Z,31.89
2022-09-04T07:46:21.139Z,32.94
2022-09-04T07:49:01.084Z,31.39
2022-09-04T07:51:39.448Z,29.01
2022-09-04T07:54:56.377Z,30.17
2022-09-04T07:58:13.175Z,30.17
2022-09-04T08:00:58.929Z,30.83
2022-09-04T08:03:54.068Z,32.11
2022-09-04T08:06:33.555Z,33.09
2022-09-04T08:09:37.113Z,33.08
2022-09-04T08:12:38.653Z,30.75
2022-09-04T08:15:18.558Z,31.57
2022-09-04T08:18:11.553Z,29.88
2022-09-04T08:20:49.982Z,31.48
2022-09-04T08:23:51.677Z,31.81
2022-09-04T08:26:35.612Z,32.16
2022-09-04T08:29:31.486Z,31.05
2022-09-04T08:32:25.402Z,31.62
2022-09-04T08:35:25.349Z,31.05
2022-09-04T08:38:18.620Z,29.63
2022-09-04T08:41:36.202Z,29.00
2022-09-04T08:44:46.078Z,28.34
2022-09-04T08:48:01.716Z,29.03
2022-09-04T08:51:23.718Z,29.69
2022-09-04T08:54:28.225Z,30.11
2022-09-04T08:57:31.039Z,29.84
2022-09-04T09:00:08.289Z,29.68
2022-09-04T09:03:51.111Z,29.15
2022-09-04T09:07:01.782Z,29.39
2022-09-04T09:10:33.239Z,29.16
2022-09-04T09:14:15.083Z,27.26
2022-09-04T09:17:12.783Z,26.36
2022-09-04T09:19:58.958Z,26.61
2022-09-04T09:23:18.071Z,26.66
2022-09-04T09:26:24.645Z,26.83
2022-09-04T09:29:33.031Z,26.77
2022-09-04T09:32:37.627Z,26.98
2022-09-04T09:35:57.068Z,26.86
2022-09-04T09:39:17.075Z,26.54
2022-09-04T09:42:23.361Z,26.61
2022-09-04T09:45:54.069Z,26.97
2022-09-04T09:49:02.178Z,27.35
2022-09-04T09:52:25.600Z,27.53
2022-09-04T09:55:43.524Z,28.65
2022-09-04T09:58:56.788Z,29.16
2022-09-04T10:02:07.100Z,29.56
2022-09-04T10:05:43.414Z,29.43
2022-09-04T10:09:09.399Z,30.53
2022-09-04T10:12:19.523Z,31.02
2022-09-04T10:15:48.913Z,31.68
2022-09-04T10:19:12.518Z,33.20
2022-09-04T10:22:36.740Z,32.27
2022-09-04T10:25:41.234Z,32.22
2022-09-04T10:28:29.833Z,32.30
2022-09-04T10:31:41.568Z,32.03
2022-09-04T10:34:56.736Z,32.43
2022-09-04T10:37:53.352Z,33.20
2022-09-04T10:40:28.528Z,32.90
2022-09-04T10:43:38.650Z,33.62
2022-09-04T10:46:23.096Z,30.88
2022-09-04T10:49:30.599Z,32.14
2022-09-04T10:52:42.226Z,31.99
2022-09-04T10:56:01.241Z,31.35
2022-09-04T10:58:47.316Z,30.87
2022-09-04T11:02:01.889Z,30.41
2022-09-04T11:05:06.514Z,30.28
2022-09-04T11:08:17.493Z,31.55
2022-09-04T11:11:09.613Z,32.90
2022-09-04T11:14:11.864Z,33.57
2022-09-04T11:17:16.531Z,32.65
2022-09-04T11:20:40.641Z,33.43
2022-09-04T11:23:59.893Z,33.91
2022-09-04T11:27:26.415Z,32.84
2022-09-04T11:30:06.794Z,30.56
2022-09-04T11:33:26.410Z,29.68
2022-09-04T11:36:51.978Z,30.11
2022-09-04T11:40:03.711Z,32.05
2022-09-04T11:42:40.287Z,33.02
2022-09-04T11:45:49.839Z,32.33
2022-09-04T11:48:40.469Z,31.10
2022-09-04T11:51:50.127Z,29.12
2022-09-04T11:54:53.176Z,27.94
2022-09-04T11:57:38.240Z,27.72
2022-09-04T12:00:11.866Z,27.27
2022-09-04T12:03:23.748Z,26.83
2022-09-04T12:06:11.502Z,27.46
2022-09-04T12:09:27.695Z,28.07
2022-09-04T12:12:21.577Z,28.39
2022-09-04T12:15:17.681Z,28.73
2022-09-04T12:18:40.196Z,28.82
2022-09-04T12:21:46.384Z,28.81
2022-09-04T12:24:41.325Z,28.96
2022-09-04T12:27:32.841Z,29.08
2022-09-04T12:30:18.812Z,28.99
2022-09-04T12:33:44.600Z,28.85
2022-09-04T12:36:58.242Z,28.74
2022-09-04T12:40:00.826Z,28.71
2022-09-04T12:42:37.437Z,28.62
2022-09-04T12:45:24.618Z,28.62
2022-09-04T12:48:09.447Z,28.55
2022-09-04T12:50:48.237Z,28.61
2022-09-04T12:53:40.970Z,28.67
2022-09-04T12:56:15.608Z,28.58
2022-09-04T12:59:16.242Z,28.61
2022-09-04T13:02:01.912Z,28.51
2022-09-04T13:04:44.773Z,28.25
2022-09-04T13:07:35.198Z,28.34
2022-09-04T13:10:24.632Z,28.37
2022-09-04T13:13:10.056Z,28.29
2022-09-04T13:15:55.452Z,28.31
2022-09-04T13:18:41.298Z,28.19
2022-09-04T13:21:27.944Z,28.11
2022-09-04T13:24:17.479Z,27.99
2022-09-04T13:27:11.685Z,27.74
2022-09-04T13:30:03.007Z,27.64
2022-09-04T13:33:10.583Z,27.50
2022-09-04T13:35:55.763Z,27.11
2022-09-04T13:38:58.373Z,26.67
2022-09-04T13:41:58.638Z,26.34
2022-09-04T13:44:58.088Z,26.58
2022-09-04T13:47:32.447Z,26.90
2022-09-04T13:50:10.982Z,27.06
2022-09-04T13:52:48.461Z,27.21
2022-09-04T13:55:23.103Z,27.33
2022-09-04T13:58:03.352Z,27.47
2022-09-04T14:00:35.284Z,27.44
2022-09-04T14:03:12.518Z,27.02
2022-09-04T14:05:41.325Z,27.05
2022-09-04T14:08:16.615Z,26.97
2022-09-04T14:11:31.166Z,26.16
2022-09-04T14:15:35.779Z,26.35
2022-09-04T14:18:25.260Z,26.29
2022-09-04T14:21:06.476Z,26.25
2022-09-04T14:23:56.475Z,26.54
2022-09-04T14:26:43.279Z,26.69
2022-09-04T14:29:29.479Z,26.98
2022-09-04T14:32:16.630Z,26.99
2022-09-04T14:34:59.959Z,26.80
2022-09-04T14:38:01.434Z,26.86
2022-09-04T14:40:34.697Z,26.85
2022-09-04T14:43:16.018Z,26.84
2022-09-04T14:46:16.161Z,26.69
2022-09-04T14:48:49.585Z,26.91
2022-09-04T14:51:32.774Z,27.06
2022-09-04T14:54:00.526Z,26.98
2022-09-04T14:56:34.847Z,26.82
2022-09-04T14:59:15.853Z,26.32
2022-09-04T15:02:24.485Z,26.06
2022-09-04T15:05:00.992Z,26.18
2022-09-04T15:07:53.634Z,26.38
2022-09-04T15:10:29.559Z,26.53
2022-09-04T15:13:28.535Z,26.66
2022-09-04T15:16:08.302Z,26.70
2022-09-04T15:18:54.237Z,26.79
2022-09-04T15:21:34.873Z,26.90
2022-09-04T15:24:23.246Z,26.76
2022-09-04T15:27:04.803Z,26.67
2022-09-04T15:29:44.344Z,26.50
2022-09-04T15:32:22.085Z,26.49
2022-09-04T15:35:11.300Z,26.55
2022-09-04T15:37:44.232Z,26.44
2022-09-04T15:40:24.334Z,26.40
2022-09-04T15:43:03.724Z,26.44
2022-09-04T15:45:42.633Z,26.58
2022-09-04T15:48:26.131Z,26.47
2022-09-04T15:51:12.396Z,26.62
2022-09-04T15:53:51.058Z,26.76
2022-09-04T15:56:34.641Z,26.58
2022-09-04T15:59:12.150Z,26.50
2022-09-04T16:01:51.147Z,26.51
2022-09-04T16:04:33.232Z,26.42
2022-09-04T16:07:33.923Z,26.50
2022-09-04T16:10:13.010Z,26.63
2022-09-04T16:15:55.255Z,26.77
2022-09-04T16:18:49.099Z,26.83
2022-09-04T16:21:37.195Z,26.84
2022-09-04T16:24:15.451Z,26.81
2022-09-04T16:30:54.469Z,26.74
2022-09-04T16:36:59.205Z,26.88
2022-09-04T16:48:33.504Z,26.72
2022-09-04T16:51:45.154Z,26.62
2022-09-04T16:54:29.117Z,26.54
2022-09-04T16:57:12.858Z,26.64
2022-09-04T16:59:46.392Z,26.54
2022-09-04T17:03:02.797Z,26.58
2022-09-04T17:05:45.129Z,26.46
2022-09-04T17:08:21.582Z,26.39
2022-09-04T17:10:55.904Z,26.39
2022-09-04T17:13:37.028Z,26.30
2022-09-04T17:16:14.541Z,26.18
2022-09-04T17:18:49.414Z,26.19
2022-09-04T17:23:47.118Z,26.15
2022-09-04T17:28:58.744Z,26.13
2022-09-04T17:29:17.146Z,26.07
2022-09-04T17:30:09.521Z,26.00
2022-09-04T17:40:13.723Z,25.95
2022-09-04T17:40:44.478Z,25.80
2022-09-04T17:40:52.233Z,25.76
2022-09-04T17:42:09.235Z,25.68
2022-09-04T17:48:06.363Z,25.38
2022-09-04T17:50:51.426Z,25.39
2022-09-04T17:53:34.325Z,25.37
2022-09-04T17:56:11.931Z,25.33
2022-09-04T17:58:50.118Z,25.25
2022-09-04T18:01:25.030Z,25.14
2022-09-04T18:04:21.423Z,25.02
2022-09-04T18:06:59.345Z,24.90
2022-09-04T18:09:38.172Z,24.78
2022-09-04T18:12:18.661Z,24.75
2022-09-04T18:15:32.880Z,24.69
2022-09-04T18:17:58.410Z,24.42
2022-09-04T18:20:37.881Z,24.35
2022-09-04T18:23:51.300Z,24.37
2022-09-04T18:26:35.779Z,24.30
2022-09-04T18:32:55.697Z,24.27
2022-09-04T18:37:19.202Z,24.05
2022-09-04T18:37:22.650Z,24.16
2022-09-04T18:39:08.909Z,23.93
2022-09-04T18:50:23.363Z,23.84
2022-09-04T18:50:32.964Z,23.64
2022-09-04T18:50:36.090Z,23.67
2022-09-04T18:51:20.117Z,23.62
2022-09-04T18:53:46.531Z,23.53
2022-09-04T18:56:20.941Z,23.34
2022-09-04T18:58:59.135Z,23.34
2022-09-04T19:01:44.318Z,23.35
2022-09-04T19:04:41.147Z,23.33
2022-09-04T19:07:21.791Z,23.26
2022-09-04T19:10:07.418Z,23.25
2022-09-04T19:12:59.635Z,23.06
2022-09-04T19:15:42.671Z,22.96
2022-09-04T19:18:26.263Z,22.91
2022-09-04T19:21:19.945Z,22.78
2022-09-04T19:23:57.194Z,22.66
2022-09-04T19:26:40.647Z,22.59
2022-09-04T19:29:18.807Z,22.51
2022-09-04T19:31:57.678Z,22.56
2022-09-04T19:34:40.193Z,22.51
2022-09-04T19:38:19.273Z,22.47
2022-09-04T19:46:19.010Z,22.40
2022-09-04T19:46:19.137Z,22.34
2022-09-04T19:47:27.228Z,22.13
2022-09-04T19:53:19.640Z,22.09
2022-09-04T19:53:49.504Z,21.97
2022-09-04T19:57:31.139Z,21.98
2022-09-04T20:04:14.182Z,21.88
2022-09-04T20:10:36.983Z,21.69
2022-09-04T20:14:18.133Z,21.54
2022-09-04T22:29:12.089Z,19.67
2022-09-04T22:32:44.340Z,19.51
2022-09-04T22:36:28.260Z,19.65
2022-09-04T22:40:01.313Z,19.36
2022-09-04T22:43:47.192Z,19.19
2022-09-04T22:46:55.902Z,19.18
2022-09-04T22:50:48.738Z,19.04
2022-09-04T22:54:16.430Z,18.83
2022-09-04T22:57:14.831Z,18.63
2022-09-04T23:00:22.830Z,18.46
2022-09-04T23:03:22.764Z,18.31
2022-09-04T23:12:54.741Z,18.26
2022-09-04T23:13:47.438Z,18.32
2022-09-04T23:13:49.991Z,18.46
2022-09-04T23:17:06.487Z,18.50
2022-09-04T23:26:35.125Z,18.55
2022-09-04T23:28:52.281Z,18.59
2022-09-04T23:49:07.780Z,18.44
2022-09-04T23:55:48.895Z,18.22
2022-09-04T23:59:11.141Z,18.30
